createdAt,value
2022-11-25T00:00:17.441Z,99265.81
2022-11-25T00:01:28.298Z,99263.97
2022-11-25T00:02:32.222Z,99265.59
2022-11-25T00:03:36.762Z,99269.91
2022-11-25T00:04:40.801Z,99266.22
2022-11-25T00:05:44.353Z,99274.09
2022-11-25T00:06:49.809Z,99275.75
2022-11-25T00:07:53.431Z,99266.13
2022-11-25T00:09:13.971Z,99265.28
2022-11-25T00:10:17.537Z,99270.69
2022-11-25T00:11:21.147Z,99274.09
2022-11-25T00:12:26.174Z,99272.38
2022-11-25T00:13:30.425Z,99274.03
2022-11-25T00:14:34.394Z,99279.16
2022-11-25T00:15:38.080Z,99277.41
2022-11-25T00:16:46.689Z,99275.63
2022-11-25T00:17:53.772Z,99276.47
2022-11-25T00:18:59.749Z,99272.16
2022-11-25T00:20:06.265Z,99277.25
2022-11-25T00:21:15.060Z,99269.31
2022-11-25T00:22:21.708Z,99276.31
2022-11-25T00:23:33.346Z,99274.38
2022-11-25T00:24:37.345Z,99287.44
2022-11-25T00:25:41.157Z,99282.16
2022-11-25T00:26:44.827Z,99273.59
2022-11-25T00:27:53.055Z,99287.66
2022-11-25T00:29:02.220Z,99289.22
2022-11-25T00:30:12.130Z,99284.81
2022-11-25T00:31:25.326Z,99296.19
2022-11-25T00:32:28.783Z,99290.03
2022-11-25T00:33:32.676Z,99289.13
2022-11-25T00:34:36.255Z,99289.03
2022-11-25T00:35:39.948Z,99285.44
2022-11-25T00:36:43.887Z,99289.13
2022-11-25T00:37:47.377Z,99286.44
2022-11-25T00:38:57.344Z,99288.06
2022-11-25T00:40:01.295Z,99284.66
2022-11-25T00:41:23.850Z,99286.50
2022-11-25T00:42:46.340Z,99288.13
2022-11-25T00:44:12.984Z,99285.44
2022-11-25T00:45:16.680Z,99281.19
2022-11-25T00:46:20.247Z,99284.66
2022-11-25T00:47:23.889Z,99288.19
2022-11-25T00:48:27.544Z,99293.38
2022-11-25T00:49:32.253Z,99290.81
2022-11-25T00:50:35.854Z,99294.22
2022-11-25T00:51:40.365Z,99300.22
2022-11-25T00:52:43.978Z,99294.97
2022-11-25T00:53:47.939Z,99287.88
2022-11-25T00:54:53.740Z,99286.97
2022-11-25T00:56:15.860Z,99289.59
2022-11-25T00:57:23.503Z,99293.91
2022-11-25T00:58:28.028Z,99298.25
2022-11-25T00:59:32.579Z,99294.78
2022-11-25T01:00:36.051Z,99293.84
2022-11-25T01:01:42.283Z,99295.59
2022-11-25T01:02:45.945Z,99299.16
2022-11-25T01:03:51.438Z,99299.16
2022-11-25T01:04:55.316Z,99292.22
2022-11-25T01:06:03.942Z,99290.38
2022-11-25T01:07:13.211Z,99298.31
2022-11-25T01:08:17.178Z,99296.47
2022-11-25T01:09:21.640Z,99299.06
2022-11-25T01:10:25.386Z,99294.69
2022-11-25T01:11:29.488Z,99298.16
2022-11-25T01:12:34.032Z,99287.72
2022-11-25T01:13:37.744Z,99298.16
2022-11-25T01:14:41.437Z,99300.69
2022-11-25T01:15:46.068Z,99290.19
2022-11-25T01:16:50.557Z,99298.00
2022-11-25T01:17:54.464Z,99297.31
2022-11-25T01:19:01.932Z,99299.91
2022-11-25T01:20:08.135Z,99292.97
2022-11-25T01:21:24.424Z,99299.00
2022-11-25T01:22:28.326Z,99300.69
2022-11-25T01:23:31.824Z,99300.69
2022-11-25T01:24:36.184Z,99305.03
2022-11-25T01:25:41.104Z,99307.59
2022-11-25T01:26:46.345Z,99299.66
2022-11-25T01:27:49.830Z,99305.78
2022-11-25T01:29:00.864Z,99301.38
2022-11-25T01:30:08.979Z,99303.16
2022-11-25T01:31:14.521Z,99302.31
2022-11-25T01:32:18.193Z,99294.34
2022-11-25T01:33:21.645Z,99296.06
2022-11-25T01:34:28.119Z,99304.72
2022-11-25T01:35:31.627Z,99299.53
2022-11-25T01:36:35.301Z,99297.81
2022-11-25T01:37:38.738Z,99300.31
2022-11-25T01:38:43.933Z,99298.63
2022-11-25T01:39:47.804Z,99302.88
2022-11-25T01:40:51.422Z,99304.59
2022-11-25T01:41:55.520Z,99300.22
2022-11-25T01:42:59.047Z,99305.38
2022-11-25T01:44:19.801Z,99302.75
2022-11-25T01:45:27.873Z,99299.28
2022-11-25T01:46:42.544Z,99298.38
2022-11-25T01:47:46.226Z,99301.97
2022-11-25T01:49:00.269Z,99289.69
2022-11-25T01:50:24.998Z,99294.94
2022-11-25T01:52:05.519Z,99300.22
2022-11-25T01:53:16.517Z,99294.13
2022-11-25T01:54:26.883Z,99292.38
2022-11-25T01:55:35.166Z,99294.94
2022-11-25T01:56:54.217Z,99294.88
2022-11-25T01:58:03.268Z,99292.34
2022-11-25T01:59:09.613Z,99297.59
2022-11-25T02:00:15.468Z,99297.59
2022-11-25T02:01:21.873Z,99299.22
2022-11-25T02:02:26.587Z,99288.78
2022-11-25T02:03:44.788Z,99293.97
2022-11-25T02:04:49.596Z,99293.13
2022-11-25T02:06:11.097Z,99292.25
2022-11-25T02:07:31.026Z,99298.38
2022-11-25T02:08:34.748Z,99287.84
2022-11-25T02:09:42.695Z,99298.22
2022-11-25T02:10:47.368Z,99292.13
2022-11-25T02:11:53.150Z,99297.31
2022-11-25T02:12:59.674Z,99295.59
2022-11-25T02:14:04.087Z,99295.59
2022-11-25T02:15:10.403Z,99290.31
2022-11-25T02:16:22.351Z,99291.16
2022-11-25T02:17:30.191Z,99289.41
2022-11-25T02:18:36.012Z,99290.34
2022-11-25T02:20:15.490Z,99288.47
2022-11-25T02:21:51.124Z,99292.78
2022-11-25T02:23:10.729Z,99291.00
2022-11-25T02:24:41.372Z,99292.88
2022-11-25T02:25:48.461Z,99294.56
2022-11-25T02:26:51.985Z,99295.41
2022-11-25T02:28:15.069Z,99298.91
2022-11-25T02:29:21.342Z,99291.09
2022-11-25T02:30:25.455Z,99294.63
2022-11-25T02:31:30.373Z,99298.13
2022-11-25T02:32:35.935Z,99298.97
2022-11-25T02:33:40.985Z,99301.53
2022-11-25T02:34:51.044Z,99292.78
2022-11-25T02:36:21.412Z,99299.81
2022-11-25T02:37:25.393Z,99296.19
2022-11-25T02:38:43.946Z,99292.72
2022-11-25T02:39:52.278Z,99297.91
2022-11-25T02:41:22.191Z,99295.41
2022-11-25T02:42:33.576Z,99293.56
2022-11-25T02:43:38.585Z,99289.16
2022-11-25T02:44:42.178Z,99283.06
2022-11-25T02:46:22.474Z,99289.41
2022-11-25T02:47:32.826Z,99285.31
2022-11-25T02:49:07.975Z,99280.75
2022-11-25T02:50:12.377Z,99281.53
2022-11-25T02:51:19.753Z,99285.91
2022-11-25T02:52:23.765Z,99289.63
2022-11-25T02:53:29.600Z,99281.59
2022-11-25T02:54:33.768Z,99278.28
2022-11-25T02:55:40.958Z,99291.25
2022-11-25T02:56:45.859Z,99279.84
2022-11-25T02:57:50.444Z,99277.22
2022-11-25T02:58:55.366Z,99278.03
2022-11-25T02:59:58.913Z,99283.22
2022-11-25T03:01:21.400Z,99278.06
2022-11-25T03:02:26.187Z,99286.94
2022-11-25T03:03:30.211Z,99279.06
2022-11-25T03:04:39.399Z,99282.44
2022-11-25T03:05:45.104Z,99281.50
2022-11-25T03:06:55.150Z,99279.72
2022-11-25T03:08:10.357Z,99282.28
2022-11-25T03:09:18.781Z,99284.06
2022-11-25T03:10:24.487Z,99286.63
2022-11-25T03:11:52.794Z,99292.78
2022-11-25T03:12:59.486Z,99292.72
2022-11-25T03:14:04.101Z,99295.28
2022-11-25T03:15:21.666Z,99292.88
2022-11-25T03:16:25.321Z,99304.09
2022-11-25T03:17:33.374Z,99294.44
2022-11-25T03:18:38.686Z,99303.13
2022-11-25T03:19:42.445Z,99294.44
2022-11-25T03:20:46.958Z,99297.00
2022-11-25T03:21:53.754Z,99294.31
2022-11-25T03:22:57.270Z,99296.03
2022-11-25T03:24:01.108Z,99297.00
2022-11-25T03:25:16.602Z,99299.81
2022-11-25T03:26:26.254Z,99302.31
2022-11-25T03:27:30.512Z,99302.44
2022-11-25T03:28:35.480Z,99310.31
2022-11-25T03:29:42.551Z,99303.31
2022-11-25T03:30:46.634Z,99300.59
2022-11-25T03:31:50.986Z,99305.78
2022-11-25T03:32:54.634Z,99306.59
2022-11-25T03:33:59.602Z,99302.31
2022-11-25T03:35:03.691Z,99304.16
2022-11-25T03:36:13.747Z,99309.25
2022-11-25T03:37:19.607Z,99312.63
2022-11-25T03:38:23.518Z,99315.34
2022-11-25T03:39:27.041Z,99312.63
2022-11-25T03:40:36.556Z,99310.84
2022-11-25T03:41:41.071Z,99309.94
2022-11-25T03:42:45.609Z,99316.91
2022-11-25T03:43:51.937Z,99322.16
2022-11-25T03:44:55.477Z,99311.72
2022-11-25T03:45:59.037Z,99316.03
2022-11-25T03:47:03.062Z,99318.66
2022-11-25T03:48:18.567Z,99316.13
2022-11-25T03:49:22.056Z,99317.81
2022-11-25T03:50:26.672Z,99314.34
2022-11-25T03:51:30.895Z,99323.84
2022-11-25T03:52:38.389Z,99312.50
2022-11-25T03:53:42.352Z,99319.47
2022-11-25T03:54:45.884Z,99309.94
2022-11-25T03:55:50.092Z,99317.72
2022-11-25T03:56:54.062Z,99314.34
2022-11-25T03:57:57.458Z,99321.28
2022-11-25T03:59:05.510Z,99313.41
2022-11-25T04:00:20.965Z,99322.16
2022-11-25T04:01:25.496Z,99313.34
2022-11-25T04:02:30.151Z,99312.50
2022-11-25T04:03:38.950Z,99321.13
2022-11-25T04:04:47.242Z,99321.19
2022-11-25T04:05:51.448Z,99321.28
2022-11-25T04:06:55.820Z,99321.22
2022-11-25T04:08:01.618Z,99323.81
2022-11-25T04:09:15.789Z,99326.38
2022-11-25T04:10:19.706Z,99322.03
2022-11-25T04:11:43.197Z,99321.13
2022-11-25T04:12:46.787Z,99325.44
2022-11-25T04:13:50.281Z,99324.53
2022-11-25T04:14:53.667Z,99318.34
2022-11-25T04:15:57.487Z,99320.13
2022-11-25T04:17:01.009Z,99320.13
2022-11-25T04:18:04.536Z,99316.56
2022-11-25T04:19:12.443Z,99329.84
2022-11-25T04:20:17.712Z,99320.38
2022-11-25T04:21:23.557Z,99327.38
2022-11-25T04:22:30.387Z,99323.00
2022-11-25T04:23:37.191Z,99332.56
2022-11-25T04:24:41.309Z,99329.06
2022-11-25T04:25:51.254Z,99327.28
2022-11-25T04:26:56.617Z,99326.31
2022-11-25T04:28:02.601Z,99335.81
2022-11-25T04:29:07.141Z,99325.31
2022-11-25T04:30:12.115Z,99333.19
2022-11-25T04:31:15.724Z,99333.25
2022-11-25T04:32:19.342Z,99335.81
2022-11-25T04:33:23.111Z,99336.63
2022-11-25T04:34:26.519Z,99336.63
2022-11-25T04:35:30.053Z,99337.41
2022-11-25T04:36:33.516Z,99339.19
2022-11-25T04:37:37.264Z,99331.38
2022-11-25T04:38:40.864Z,99334.84
2022-11-25T04:39:44.404Z,99331.38
2022-11-25T04:40:47.958Z,99331.31
2022-11-25T04:42:11.652Z,99337.41
2022-11-25T04:43:15.393Z,99340.81
2022-11-25T04:44:18.767Z,99336.41
2022-11-25T04:45:23.573Z,99345.13
2022-11-25T04:46:38.521Z,99345.97
2022-11-25T04:47:42.898Z,99344.13
2022-11-25T04:48:46.649Z,99343.19
2022-11-25T04:49:50.586Z,99340.50
2022-11-25T04:50:54.438Z,99346.59
2022-11-25T04:51:58.432Z,99350.16
2022-11-25T04:53:02.028Z,99351.81
2022-11-25T04:54:07.530Z,99345.72
2022-11-25T04:55:15.934Z,99346.56
2022-11-25T04:56:21.879Z,99349.97
2022-11-25T04:57:26.154Z,99347.41
2022-11-25T04:58:49.890Z,99354.38
2022-11-25T04:59:53.307Z,99357.78
2022-11-25T05:00:57.126Z,99355.16
2022-11-25T05:02:28.434Z,99357.78
2022-11-25T05:03:32.462Z,99358.72
2022-11-25T05:04:36.294Z,99356.09
2022-11-25T05:05:40.559Z,99364.81
2022-11-25T05:06:44.814Z,99354.25
2022-11-25T05:07:49.144Z,99351.59
2022-11-25T05:08:53.667Z,99361.19
2022-11-25T05:10:01.763Z,99359.41
2022-11-25T05:11:11.685Z,99359.41
2022-11-25T05:12:28.567Z,99359.38
2022-11-25T05:13:33.080Z,99363.91
2022-11-25T05:14:49.674Z,99360.31
2022-11-25T05:16:01.677Z,99366.47
2022-11-25T05:17:15.124Z,99370.88
2022-11-25T05:18:20.254Z,99370.00
2022-11-25T05:19:27.497Z,99369.38
2022-11-25T05:20:35.038Z,99372.72
2022-11-25T05:21:39.356Z,99363.03
2022-11-25T05:22:42.932Z,99374.41
2022-11-25T05:23:54.395Z,99371.72
2022-11-25T05:25:12.721Z,99371.84
2022-11-25T05:26:20.412Z,99373.56
2022-11-25T05:27:29.199Z,99376.97
2022-11-25T05:28:32.889Z,99372.56
2022-11-25T05:29:40.154Z,99376.00
2022-11-25T05:30:45.931Z,99377.72
2022-11-25T05:31:54.354Z,99382.97
2022-11-25T05:32:58.248Z,99384.69
2022-11-25T05:34:05.829Z,99377.63
2022-11-25T05:35:18.255Z,99375.09
2022-11-25T05:36:26.833Z,99376.00
2022-11-25T05:37:40.718Z,99379.56
2022-11-25T05:38:48.363Z,99376.88
2022-11-25T05:39:56.567Z,99386.38
2022-11-25T05:41:07.061Z,99378.56
2022-11-25T05:42:15.755Z,99383.81
2022-11-25T05:43:22.370Z,99389.09
2022-11-25T05:44:29.629Z,99387.38
2022-11-25T05:45:33.208Z,99390.00
2022-11-25T05:46:36.811Z,99390.94
2022-11-25T05:47:40.669Z,99391.03
2022-11-25T05:48:47.343Z,99388.66
2022-11-25T05:49:53.970Z,99396.44
2022-11-25T05:51:03.340Z,99393.81
2022-11-25T05:52:12.889Z,99393.13
2022-11-25T05:53:17.494Z,99398.69
2022-11-25T05:54:21.161Z,99394.97
2022-11-25T05:55:25.155Z,99405.66
2022-11-25T05:56:28.836Z,99402.06
2022-11-25T05:57:32.851Z,99403.72
2022-11-25T05:58:36.566Z,99400.25
2022-11-25T05:59:40.259Z,99412.59
2022-11-25T06:00:43.823Z,99408.13
2022-11-25T06:01:47.598Z,99407.13
2022-11-25T06:02:53.428Z,99403.66
2022-11-25T06:04:02.403Z,99402.06
2022-11-25T06:05:13.082Z,99401.16
2022-11-25T06:06:17.231Z,99414.09
2022-11-25T06:07:20.953Z,99413.13
2022-11-25T06:08:25.562Z,99418.31
2022-11-25T06:09:29.215Z,99410.44
2022-11-25T06:10:33.282Z,99415.69
2022-11-25T06:11:36.933Z,99413.00
2022-11-25T06:12:40.507Z,99406.94
2022-11-25T06:13:44.872Z,99417.47
2022-11-25T06:14:48.643Z,99421.72
2022-11-25T06:15:52.342Z,99412.06
2022-11-25T06:16:59.761Z,99414.69
2022-11-25T06:18:03.374Z,99420.16
2022-11-25T06:19:08.026Z,99418.38
2022-11-25T06:20:14.427Z,99420.88
2022-11-25T06:21:20.353Z,99419.03
2022-11-25T06:22:33.405Z,99423.31
2022-11-25T06:23:41.735Z,99417.31
2022-11-25T06:24:52.147Z,99422.50
2022-11-25T06:26:32.133Z,99422.47
2022-11-25T06:28:04.397Z,99421.47
2022-11-25T06:29:03.683Z,99421.41
2022-11-25T06:30:15.462Z,99419.63
2022-11-25T06:31:25.654Z,99421.31
2022-11-25T06:32:32.137Z,99422.09
2022-11-25T06:33:39.353Z,99419.53
2022-11-25T06:34:43.892Z,99417.84
2022-11-25T06:35:47.835Z,99419.69
2022-11-25T06:36:57.092Z,99427.47
2022-11-25T06:38:04.693Z,99428.44
2022-11-25T06:39:20.965Z,99430.09
2022-11-25T06:40:28.275Z,99429.75
2022-11-25T06:41:34.283Z,99434.94
2022-11-25T06:42:40.164Z,99428.66
2022-11-25T06:43:46.536Z,99426.81
2022-11-25T06:44:50.329Z,99437.38
2022-11-25T06:45:54.149Z,99434.88
2022-11-25T06:46:57.846Z,99434.75
2022-11-25T06:48:01.495Z,99438.09
2022-11-25T06:49:05.286Z,99439.69
2022-11-25T06:50:16.123Z,99435.22
2022-11-25T06:51:20.026Z,99439.88
2022-11-25T06:52:32.671Z,99435.38
2022-11-25T06:53:40.855Z,99433.53
2022-11-25T06:54:45.570Z,99437.78
2022-11-25T06:55:48.963Z,99441.19
2022-11-25T06:56:53.842Z,99442.00
2022-11-25T06:58:13.881Z,99436.69
2022-11-25T06:59:25.319Z,99440.94
2022-11-25T07:00:30.739Z,99439.16
2022-11-25T07:01:37.096Z,99441.69
2022-11-25T07:02:45.334Z,99446.88
2022-11-25T07:04:01.335Z,99446.03
2022-11-25T07:05:07.580Z,99442.47
2022-11-25T07:06:28.330Z,99436.28
2022-11-25T07:07:32.357Z,99441.53
2022-11-25T07:08:37.343Z,99437.97
2022-11-25T07:09:42.961Z,99435.31
2022-11-25T07:10:49.501Z,99435.31
2022-11-25T07:11:56.481Z,99441.44
2022-11-25T07:13:00.352Z,99440.50
2022-11-25T07:14:11.603Z,99436.97
2022-11-25T07:15:19.719Z,99439.53
2022-11-25T07:16:29.581Z,99440.28
2022-11-25T07:17:35.852Z,99436.81
2022-11-25T07:18:43.402Z,99439.41
2022-11-25T07:19:46.866Z,99434.19
2022-11-25T07:20:50.641Z,99444.59
2022-11-25T07:21:54.427Z,99448.94
2022-11-25T07:22:58.074Z,99448.94
2022-11-25T07:24:10.857Z,99435.72
2022-11-25T07:25:18.002Z,99447.94
2022-11-25T07:26:29.653Z,99452.22
2022-11-25T07:27:34.513Z,99446.97
2022-11-25T07:28:39.680Z,99445.13
2022-11-25T07:30:10.333Z,99446.81
2022-11-25T07:31:34.699Z,99447.81
2022-11-25T07:32:38.770Z,99444.28
2022-11-25T07:33:47.964Z,99449.31
2022-11-25T07:34:54.716Z,99446.81
2022-11-25T07:36:08.677Z,99445.81
2022-11-25T07:37:18.452Z,99454.56
2022-11-25T07:38:22.496Z,99461.56
2022-11-25T07:39:26.153Z,99454.53
2022-11-25T07:40:30.167Z,99453.59
2022-11-25T08:52:13.638Z,99506.00
2022-11-25T08:53:20.652Z,99510.38
2022-11-25T08:54:33.322Z,99504.97
2022-11-25T08:55:38.990Z,99505.75
2022-11-25T08:56:43.594Z,99503.06
2022-11-25T08:57:48.760Z,99509.91
2022-11-25T08:58:57.337Z,99506.44
2022-11-25T09:00:01.168Z,99513.31
2022-11-25T09:01:11.452Z,99514.06
2022-11-25T09:02:18.823Z,99519.19
2022-11-25T09:03:40.855Z,99513.91
2022-11-25T09:04:45.742Z,99512.94
2022-11-25T09:05:50.633Z,99518.16
2022-11-25T09:06:54.757Z,99515.50
2022-11-25T09:07:59.633Z,99519.72
2022-11-25T09:09:06.580Z,99517.06
2022-11-25T09:10:16.276Z,99516.03
2022-11-25T09:11:20.039Z,99521.22
2022-11-25T09:12:24.233Z,99522.06
2022-11-25T09:13:28.131Z,99520.28
2022-11-25T09:14:32.591Z,99527.28
2022-11-25T09:15:37.856Z,99513.25
2022-11-25T09:16:41.608Z,99527.16
2022-11-25T09:17:46.634Z,99519.34
2022-11-25T09:18:55.547Z,99520.88
2022-11-25T09:20:00.975Z,99524.38
2022-11-25T09:21:22.737Z,99519.00
2022-11-25T09:22:29.789Z,99519.00
2022-11-25T09:23:33.446Z,99518.00
2022-11-25T09:24:37.422Z,99515.34
2022-11-25T09:25:40.974Z,99524.03
2022-11-25T09:26:48.667Z,99524.88
2022-11-25T09:28:33.861Z,99523.91
2022-11-25T09:29:39.148Z,99528.25
2022-11-25T09:30:47.274Z,99526.41
2022-11-25T09:31:54.989Z,99519.44
2022-11-25T09:33:02.346Z,99520.34
2022-11-25T09:34:12.628Z,99519.44
2022-11-25T09:36:48.041Z,99529.91
2022-11-25T09:37:53.994Z,99527.25
2022-11-25T09:38:57.555Z,99523.66
2022-11-25T09:40:01.518Z,99526.31
2022-11-25T09:41:46.296Z,99528.03
2022-11-25T09:43:50.217Z,99531.59
2022-11-25T09:45:44.483Z,99528.25
2022-11-25T09:47:09.555Z,99523.00
2022-11-25T09:48:47.516Z,99526.66
2022-11-25T09:50:35.257Z,99516.88
2022-11-25T09:52:21.746Z,99525.63
2022-11-25T09:53:58.442Z,99522.84
2022-11-25T09:55:36.458Z,99523.66
2022-11-25T09:57:03.550Z,99520.88
2022-11-25T09:58:29.922Z,99520.94
2022-11-25T09:59:53.770Z,99524.50
2022-11-25T10:01:14.047Z,99522.50
2022-11-25T10:03:00.342Z,99521.53
2022-11-25T10:04:28.463Z,99519.75
2022-11-25T10:06:07.307Z,99520.53
2022-11-25T10:07:33.373Z,99519.31
2022-11-25T10:08:53.659Z,99518.47
2022-11-25T10:10:02.009Z,99534.09
2022-11-25T10:11:20.658Z,99521.66
2022-11-25T10:12:38.199Z,99522.41
2022-11-25T10:13:59.092Z,99516.22
2022-11-25T10:15:13.976Z,99521.50
2022-11-25T10:16:39.539Z,99525.78
2022-11-25T10:18:04.444Z,99516.09
2022-11-25T10:20:00.476Z,99526.50
2022-11-25T10:21:05.283Z,99526.38
2022-11-25T10:22:34.302Z,99524.50
2022-11-25T10:23:40.247Z,99524.50
2022-11-25T10:24:44.783Z,99523.50
2022-11-25T10:25:57.453Z,99516.25
2022-11-25T10:27:15.221Z,99516.97
2022-11-25T10:28:25.371Z,99517.75
2022-11-25T10:29:35.714Z,99521.88
2022-11-25T10:31:00.750Z,99528.78
2022-11-25T10:32:28.995Z,99528.78
2022-11-25T10:33:46.720Z,99524.16
2022-11-25T10:35:09.119Z,99530.22
2022-11-25T10:36:31.752Z,99525.78
2022-11-25T10:37:55.382Z,99528.34
2022-11-25T10:39:29.889Z,99528.44
2022-11-25T10:40:33.762Z,99527.41
2022-11-25T10:42:02.441Z,99528.13
2022-11-25T10:43:31.517Z,99530.78
2022-11-25T10:44:41.252Z,99529.06
2022-11-25T10:46:14.817Z,99530.06
2022-11-25T10:48:04.599Z,99534.47
2022-11-25T10:49:43.631Z,99529.06
2022-11-25T10:51:21.132Z,99539.69
2022-11-25T10:52:33.201Z,99533.50
2022-11-25T10:53:38.181Z,99536.81
2022-11-25T10:54:42.763Z,99534.91
2022-11-25T10:56:19.159Z,99528.53
2022-11-25T10:57:29.385Z,99532.00
2022-11-25T10:58:39.407Z,99525.91
2022-11-25T10:59:54.090Z,99524.13
2022-11-25T11:01:18.052Z,99534.53
2022-11-25T11:02:38.879Z,99528.41
2022-11-25T11:03:54.782Z,99530.03
2022-11-25T11:05:19.900Z,99529.03
2022-11-25T11:06:38.663Z,99524.59
2022-11-25T11:07:46.652Z,99528.97
2022-11-25T11:08:50.342Z,99532.38
2022-11-25T11:10:23.915Z,99531.63
2022-11-25T11:11:28.270Z,99527.31
2022-11-25T11:12:32.553Z,99534.19
2022-11-25T11:13:36.320Z,99535.88
2022-11-25T11:14:40.520Z,99528.81
2022-11-25T11:15:48.378Z,99529.50
2022-11-25T11:16:57.431Z,99532.09
2022-11-25T11:18:39.679Z,99531.25
2022-11-25T11:19:59.568Z,99527.81
2022-11-25T11:21:11.701Z,99532.16
2022-11-25T11:22:26.143Z,99529.38
2022-11-25T11:23:30.164Z,99531.84
2022-11-25T11:24:42.854Z,99530.88
2022-11-25T11:26:04.675Z,99529.00
2022-11-25T11:27:22.096Z,99524.59
2022-11-25T11:28:37.398Z,99527.13
2022-11-25T11:29:41.645Z,99526.28
2022-11-25T11:31:27.130Z,99523.66
2022-11-25T11:32:31.091Z,99518.38
2022-11-25T11:33:40.644Z,99526.28
2022-11-25T11:35:14.486Z,99524.38
2022-11-25T11:36:51.389Z,99520.72
2022-11-25T11:38:09.700Z,99532.97
2022-11-25T11:39:48.036Z,99529.28
2022-11-25T11:41:00.532Z,99522.19
2022-11-25T11:42:23.451Z,99535.16
2022-11-25T11:44:07.470Z,99525.44
2022-11-25T11:45:25.507Z,99525.31
2022-11-25T11:47:01.475Z,99531.53
2022-11-25T11:48:38.644Z,99526.00
2022-11-25T11:50:12.238Z,99526.72
2022-11-25T11:51:50.631Z,99538.97
2022-11-25T11:53:14.348Z,99523.91
2022-11-25T11:54:37.131Z,99527.47
2022-11-25T11:56:26.745Z,99536.13
2022-11-25T11:58:02.729Z,99537.66
2022-11-25T11:59:19.555Z,99534.94
2022-11-25T12:00:27.232Z,99538.28
2022-11-25T12:02:04.675Z,99537.34
2022-11-25T12:03:24.530Z,99531.06
2022-11-25T12:04:42.384Z,99531.91
2022-11-25T12:05:54.200Z,99531.31
2022-11-25T12:07:33.323Z,99530.16
2022-11-25T12:08:59.350Z,99536.03
2022-11-25T12:10:16.235Z,99529.81
2022-11-25T12:11:30.302Z,99534.09
2022-11-25T12:12:40.420Z,99536.56
2022-11-25T12:14:54.108Z,99542.63
2022-11-25T12:16:10.336Z,99533.94
2022-11-25T12:17:41.707Z,99536.19
2022-11-25T12:19:17.696Z,99538.44
2022-11-25T12:20:58.006Z,99543.56
2022-11-25T12:22:23.750Z,99540.91
2022-11-25T12:24:14.793Z,99539.94
2022-11-25T12:25:27.064Z,99539.75
2022-11-25T12:27:04.454Z,99547.59
2022-11-25T12:28:29.559Z,99547.91
2022-11-25T12:30:13.951Z,99545.13
2022-11-25T12:31:55.620Z,99545.97
2022-11-25T12:33:22.040Z,99549.31
2022-11-25T12:34:50.848Z,99548.31
2022-11-25T12:36:02.983Z,99550.88
2022-11-25T12:37:30.641Z,99554.53
2022-11-25T12:38:47.523Z,99554.28
2022-11-25T12:40:27.667Z,99549.78
2022-11-25T12:41:57.942Z,99554.13
2022-11-25T12:43:27.819Z,99551.53
2022-11-25T12:44:38.174Z,99548.06
2022-11-25T12:45:46.860Z,99555.22
2022-11-25T12:46:54.637Z,99561.50
2022-11-25T12:47:58.289Z,99551.72
2022-11-25T12:49:02.806Z,99547.28
2022-11-25T12:50:20.900Z,99542.94
2022-11-25T12:52:05.393Z,99546.34
2022-11-25T12:53:48.527Z,99550.69
2022-11-25T12:55:08.367Z,99549.00
2022-11-25T12:56:34.513Z,99547.16
2022-11-25T12:58:15.682Z,99545.28
2022-11-25T13:00:11.260Z,99540.00
2022-11-25T13:02:02.406Z,99548.69
2022-11-25T13:03:41.966Z,99544.34
2022-11-25T13:05:38.857Z,99552.25
2022-11-25T13:07:10.858Z,99557.47
2022-11-25T13:08:51.592Z,99555.66
2022-11-25T13:10:43.491Z,99550.38
2022-11-25T13:12:38.680Z,99547.66
2022-11-25T13:14:04.874Z,99556.47
2022-11-25T13:15:30.940Z,99548.69
2022-11-25T13:16:35.346Z,99551.31
2022-11-25T13:17:47.200Z,99549.44
2022-11-25T13:18:51.737Z,99553.81
2022-11-25T13:20:27.227Z,99551.09
2022-11-25T13:21:32.054Z,99545.81
2022-11-25T13:22:36.342Z,99553.72
2022-11-25T13:23:52.982Z,99554.50
2022-11-25T13:25:03.808Z,99546.75
2022-11-25T13:26:47.818Z,99558.94
2022-11-25T13:27:57.507Z,99551.94
2022-11-25T13:29:25.223Z,99558.00
2022-11-25T13:30:34.735Z,99561.56
2022-11-25T13:32:26.158Z,99556.28
2022-11-25T13:33:51.417Z,99561.56
2022-11-25T13:35:22.700Z,99558.94
2022-11-25T13:36:51.723Z,99552.25
2022-11-25T13:37:55.911Z,99548.69
2022-11-25T13:39:07.631Z,99557.75
2022-11-25T13:40:27.035Z,99565.88
2022-11-25T13:42:00.981Z,99558.03
2022-11-25T13:43:19.948Z,99558.03
2022-11-25T13:44:36.076Z,99560.03
2022-11-25T13:45:45.061Z,99560.88
2022-11-25T13:46:55.853Z,99562.59
2022-11-25T13:48:16.592Z,99565.31
2022-11-25T13:49:56.473Z,99561.81
2022-11-25T13:51:23.552Z,99566.38
2022-11-25T13:53:00.144Z,99567.31
2022-11-25T13:54:16.752Z,99566.56
2022-11-25T13:55:24.393Z,99572.78
2022-11-25T13:56:37.637Z,99569.28
2022-11-25T13:57:46.713Z,99564.09
2022-11-25T13:59:12.418Z,99576.34
2022-11-25T14:00:19.066Z,99573.81
2022-11-25T14:01:30.332Z,99569.41
2022-11-25T14:02:45.521Z,99569.38
2022-11-25T14:03:55.554Z,99566.78
2022-11-25T14:05:38.720Z,99573.94
2022-11-25T14:07:25.229Z,99573.09
2022-11-25T14:09:09.494Z,99569.19
2022-11-25T14:10:50.002Z,99569.97
2022-11-25T14:12:03.383Z,99574.41
2022-11-25T14:13:19.332Z,99578.84
2022-11-25T14:15:00.321Z,99579.75
2022-11-25T14:16:31.041Z,99575.41
2022-11-25T14:18:04.658Z,99579.28
2022-11-25T14:19:51.531Z,99575.72
2022-11-25T14:21:08.565Z,99574.00
2022-11-25T14:22:52.064Z,99572.28
2022-11-25T14:24:52.995Z,99568.19
2022-11-25T14:26:11.694Z,99580.44
2022-11-25T14:27:34.081Z,99576.09
2022-11-25T14:28:50.035Z,99577.09
2022-11-25T14:30:09.431Z,99586.69
2022-11-25T14:31:24.440Z,99577.25
2022-11-25T14:32:49.580Z,99577.38
2022-11-25T14:34:14.403Z,99576.53
2022-11-25T14:35:45.363Z,99584.59
2022-11-25T14:37:01.619Z,99576.69
2022-11-25T14:38:33.202Z,99583.75
2022-11-25T14:40:14.172Z,99585.63
2022-11-25T14:42:05.020Z,99589.16
2022-11-25T14:43:31.472Z,99584.13
2022-11-25T14:44:47.615Z,99580.75
2022-11-25T14:46:13.945Z,99584.19
2022-11-25T14:47:27.606Z,99583.34
2022-11-25T14:48:37.681Z,99587.69
2022-11-25T14:50:33.685Z,99581.56
2022-11-25T14:51:24.752Z,99588.53
2022-11-25T14:52:39.262Z,99585.09
2022-11-25T14:53:49.793Z,99586.00
2022-11-25T14:54:59.553Z,99591.31
2022-11-25T14:56:09.793Z,99596.59
2022-11-25T14:57:14.641Z,99593.03
2022-11-25T14:58:19.616Z,99591.31
2022-11-25T14:59:35.204Z,99597.44
2022-11-25T15:01:05.473Z,99602.66
2022-11-25T15:02:34.646Z,99598.31
2022-11-25T15:03:38.766Z,99601.81
2022-11-25T15:04:46.099Z,99595.75
2022-11-25T15:06:03.377Z,99587.13
2022-11-25T15:07:27.812Z,99602.81
2022-11-25T15:08:46.246Z,99595.03
2022-11-25T15:09:50.473Z,99599.47
2022-11-25T15:11:00.959Z,99599.50
2022-11-25T15:12:15.219Z,99599.47
2022-11-25T15:14:11.596Z,99604.88
2022-11-25T15:15:18.109Z,99599.88
2022-11-25T15:16:32.038Z,99604.19
2022-11-25T15:17:42.224Z,99606.91
2022-11-25T15:19:01.437Z,99608.59
2022-11-25T15:20:17.485Z,99612.09
2022-11-25T15:21:29.088Z,99604.19
2022-11-25T15:22:47.555Z,99613.72
2022-11-25T15:23:51.702Z,99611.16
2022-11-25T15:25:12.198Z,99609.38
2022-11-25T15:26:25.881Z,99610.38
2022-11-25T15:27:29.488Z,99612.16
2022-11-25T15:28:40.087Z,99611.38
2022-11-25T15:29:48.680Z,99608.88
2022-11-25T15:31:02.588Z,99615.00
2022-11-25T15:32:16.532Z,99618.59
2022-11-25T15:33:22.999Z,99616.03
2022-11-25T15:34:31.694Z,99617.94